sensor_id;sensor_type;location;lat;lon;timestamp;P1;durP1;ratioP1;P2;durP2;ratioP2
3297;SDS011;1661;53.572;10.174;2023-07-20T00:00:05;1.63;;;1.53;;
3297;SDS011;1661;53.572;10.174;2023-07-20T00:02:33;1.87;;;1.67;;
3297;SDS011;1661;53.572;10.174;2023-07-20T00:05:00;2.53;;;2.17;;
3297;SDS011;1661;53.572;10.174;2023-07-20T00:07:27;3.10;;;1.50;;
3297;SDS011;1661;53.572;10.174;2023-07-20T00:09:55;3.17;;;1.93;;
3297;SDS011;1661;53.572;10.174;2023-07-20T00:12:22;1.53;;;1.43;;
3297;SDS011;1661;53.572;10.174;2023-07-20T00:14:49;2.03;;;1.93;;
3297;SDS011;1661;53.572;10.174;2023-07-20T00:17:18;3.90;;;2.70;;
3297;SDS011;1661;53.572;10.174;2023-07-20T00:19:45;2.50;;;2.30;;
3297;SDS011;1661;53.572;10.174;2023-07-20T00:22:12;2.70;;;1.80;;
3297;SDS011;1661;53.572;10.174;2023-07-20T00:24:39;2.30;;;2.10;;
3297;SDS011;1661;53.572;10.174;2023-07-20T00:27:07;6.63;;;2.60;;
3297;SDS011;1661;53.572;10.174;2023-07-20T00:29:34;2.00;;;1.90;;
3297;SDS011;1661;53.572;10.174;2023-07-20T00:32:01;4.60;;;2.07;;
3297;SDS011;1661;53.572;10.174;2023-07-20T00:34:30;2.33;;;2.13;;
3297;SDS011;1661;53.572;10.174;2023-07-20T00:36:56;1.97;;;1.57;;
3297;SDS011;1661;53.572;10.174;2023-07-20T00:39:23;7.20;;;2.10;;
3297;SDS011;1661;53.572;10.174;2023-07-20T00:41:50;2.40;;;2.20;;
3297;SDS011;1661;53.572;10.174;2023-07-20T00:44:18;2.53;;;2.33;;
3297;SDS011;1661;53.572;10.174;2023-07-20T00:46:45;2.00;;;1.80;;
3297;SDS011;1661;53.572;10.174;2023-07-20T00:49:12;3.00;;;1.83;;
3297;SDS011;1661;53.572;10.174;2023-07-20T00:51:40;2.40;;;2.20;;
3297;SDS011;1661;53.572;10.174;2023-07-20T00:54:07;2.43;;;2.07;;
3297;SDS011;1661;53.572;10.174;2023-07-20T00:56:34;1.70;;;1.60;;
3297;SDS011;1661;53.572;10.174;2023-07-20T00:59:08;3.23;;;2.03;;
3297;SDS011;1661;53.572;10.174;2023-07-20T01:01:37;3.10;;;2.20;;
3297;SDS011;1661;53.572;10.174;2023-07-20T01:04:03;3.77;;;1.83;;
3297;SDS011;1661;53.572;10.174;2023-07-20T01:06:33;2.43;;;1.63;;
3297;SDS011;1661;53.572;10.174;2023-07-20T01:09:08;3.00;;;2.70;;
3297;SDS011;1661;53.572;10.174;2023-07-20T01:11:43;4.73;;;2.50;;
3297;SDS011;1661;53.572;10.174;2023-07-20T01:14:17;2.73;;;2.53;;
3297;SDS011;1661;53.572;10.174;2023-07-20T01:16:46;2.27;;;2.17;;
3297;SDS011;1661;53.572;10.174;2023-07-20T01:19:14;2.20;;;2.00;;
3297;SDS011;1661;53.572;10.174;2023-07-20T01:21:42;2.13;;;2.03;;
3297;SDS011;1661;53.572;10.174;2023-07-20T01:24:19;2.57;;;2.37;;
3297;SDS011;1661;53.572;10.174;2023-07-20T01:30:14;1.90;;;1.80;;
3297;SDS011;1661;53.572;10.174;2023-07-20T01:32:52;3.67;;;1.90;;
3297;SDS011;1661;53.572;10.174;2023-07-20T01:35:21;4.33;;;3.10;;
3297;SDS011;1661;53.572;10.174;2023-07-20T01:37:53;5.10;;;2.40;;
3297;SDS011;1661;53.572;10.174;2023-07-20T01:40:20;4.37;;;2.47;;
3297;SDS011;1661;53.572;10.174;2023-07-20T01:42:50;4.23;;;2.17;;
3297;SDS011;1661;53.572;10.174;2023-07-20T01:45:18;5.93;;;2.53;;
3297;SDS011;1661;53.572;10.174;2023-07-20T01:47:45;3.70;;;2.90;;
3297;SDS011;1661;53.572;10.174;2023-07-20T01:50:13;3.07;;;2.77;;
3297;SDS011;1661;53.572;10.174;2023-07-20T01:52:40;1.80;;;1.70;;
3297;SDS011;1661;53.572;10.174;2023-07-20T01:55:07;2.37;;;1.90;;
3297;SDS011;1661;53.572;10.174;2023-07-20T01:57:34;2.33;;;2.10;;
3297;SDS011;1661;53.572;10.174;2023-07-20T02:00:01;2.40;;;2.20;;
3297;SDS011;1661;53.572;10.174;2023-07-20T02:02:28;2.13;;;2.03;;
3297;SDS011;1661;53.572;10.174;2023-07-20T02:04:55;2.40;;;2.20;;
3297;SDS011;1661;53.572;10.174;2023-07-20T02:07:23;2.23;;;2.10;;
3297;SDS011;1661;53.572;10.174;2023-07-20T02:09:51;3.00;;;2.13;;
3297;SDS011;1661;53.572;10.174;2023-07-20T02:12:18;2.97;;;2.77;;
3297;SDS011;1661;53.572;10.174;2023-07-20T02:14:44;3.57;;;3.27;;
3297;SDS011;1661;53.572;10.174;2023-07-20T02:17:11;3.30;;;3.00;;
3297;SDS011;1661;53.572;10.174;2023-07-20T02:19:40;2.83;;;2.47;;
3297;SDS011;1661;53.572;10.174;2023-07-20T02:22:07;5.20;;;3.60;;
3297;SDS011;1661;53.572;10.174;2023-07-20T02:24:35;2.70;;;2.50;;
3297;SDS011;1661;53.572;10.174;2023-07-20T02:27:02;6.87;;;3.83;;
3297;SDS011;1661;53.572;10.174;2023-07-20T02:29:29;2.77;;;2.50;;
3297;SDS011;1661;53.572;10.174;2023-07-20T02:31:55;4.00;;;3.30;;
3297;SDS011;1661;53.572;10.174;2023-07-20T02:34:22;3.37;;;3.17;;
3297;SDS011;1661;53.572;10.174;2023-07-20T02:36:49;4.90;;;4.37;;
3297;SDS011;1661;53.572;10.174;2023-07-20T02:39:16;3.93;;;3.50;;
3297;SDS011;1661;53.572;10.174;2023-07-20T02:41:44;5.13;;;4.23;;
3297;SDS011;1661;53.572;10.174;2023-07-20T02:44:11;4.23;;;3.93;;
3297;SDS011;1661;53.572;10.174;2023-07-20T02:46:38;3.80;;;3.00;;
3297;SDS011;1661;53.572;10.174;2023-07-20T02:49:05;3.23;;;3.03;;
3297;SDS011;1661;53.572;10.174;2023-07-20T02:51:32;3.47;;;3.27;;
3297;SDS011;1661;53.572;10.174;2023-07-20T02:53:58;3.63;;;3.33;;
3297;SDS011;1661;53.572;10.174;2023-07-20T02:56:26;3.30;;;3.10;;
3297;SDS011;1661;53.572;10.174;2023-07-20T02:58:54;3.83;;;3.20;;
3297;SDS011;1661;53.572;10.174;2023-07-20T03:01:21;2.80;;;2.60;;
3297;SDS011;1661;53.572;10.174;2023-07-20T03:03:48;4.47;;;4.07;;
3297;SDS011;1661;53.572;10.174;2023-07-20T03:06:15;3.83;;;3.30;;
3297;SDS011;1661;53.572;10.174;2023-07-20T03:08:42;2.87;;;2.67;;
3297;SDS011;1661;53.572;10.174;2023-07-20T03:11:12;5.40;;;3.00;;
3297;SDS011;1661;53.572;10.174;2023-07-20T03:13:40;3.50;;;3.20;;
3297;SDS011;1661;53.572;10.174;2023-07-20T03:16:08;5.87;;;4.20;;
3297;SDS011;1661;53.572;10.174;2023-07-20T03:18:36;3.90;;;3.60;;
3297;SDS011;1661;53.572;10.174;2023-07-20T03:21:03;4.63;;;4.33;;
3297;SDS011;1661;53.572;10.174;2023-07-20T03:23:30;3.83;;;3.53;;
3297;SDS011;1661;53.572;10.174;2023-07-20T03:25:57;3.97;;;3.60;;
3297;SDS011;1661;53.572;10.174;2023-07-20T03:28:24;5.57;;;5.07;;
3297;SDS011;1661;53.572;10.174;2023-07-20T03:30:52;3.90;;;3.60;;
3297;SDS011;1661;53.572;10.174;2023-07-20T03:33:22;4.27;;;3.97;;
3297;SDS011;1661;53.572;10.174;2023-07-20T03:35:49;4.87;;;4.57;;
3297;SDS011;1661;53.572;10.174;2023-07-20T03:38:15;4.47;;;4.03;;
3297;SDS011;1661;53.572;10.174;2023-07-20T03:40:49;4.10;;;3.80;;
3297;SDS011;1661;53.572;10.174;2023-07-20T03:43:15;3.70;;;3.50;;
3297;SDS011;1661;53.572;10.174;2023-07-20T03:45:41;3.97;;;3.77;;
3297;SDS011;1661;53.572;10.174;2023-07-20T03:48:08;4.43;;;4.03;;
3297;SDS011;1661;53.572;10.174;2023-07-20T03:50:37;5.03;;;4.70;;
3297;SDS011;1661;53.572;10.174;2023-07-20T03:53:04;5.33;;;3.93;;
3297;SDS011;1661;53.572;10.174;2023-07-20T03:55:30;3.80;;;3.40;;
3297;SDS011;1661;53.572;10.174;2023-07-20T03:57:57;6.60;;;4.20;;
3297;SDS011;1661;53.572;10.174;2023-07-20T04:00:24;3.37;;;3.10;;
3297;SDS011;1661;53.572;10.174;2023-07-20T04:02:51;4.50;;;4.20;;
3297;SDS011;1661;53.572;10.174;2023-07-20T04:05:18;3.57;;;3.27;;
3297;SDS011;1661;53.572;10.174;2023-07-20T04:07:46;5.10;;;4.23;;
3297;SDS011;1661;53.572;10.174;2023-07-20T04:10:13;3.77;;;3.50;;
3297;SDS011;1661;53.572;10.174;2023-07-20T04:12:40;5.17;;;4.70;;
3297;SDS011;1661;53.572;10.174;2023-07-20T04:15:07;4.63;;;4.20;;
3297;SDS011;1661;53.572;10.174;2023-07-20T04:17:34;4.63;;;4.23;;
3297;SDS011;1661;53.572;10.174;2023-07-20T04:20:01;4.30;;;2.67;;
3297;SDS011;1661;53.572;10.174;2023-07-20T04:22:29;6.50;;;4.17;;
3297;SDS011;1661;53.572;10.174;2023-07-20T04:24:57;3.80;;;3.40;;
3297;SDS011;1661;53.572;10.174;2023-07-20T04:27:24;3.40;;;3.20;;
3297;SDS011;1661;53.572;10.174;2023-07-20T04:29:51;4.33;;;4.03;;
3297;SDS011;1661;53.572;10.174;2023-07-20T04:32:18;3.13;;;2.83;;
3297;SDS011;1661;53.572;10.174;2023-07-20T04:34:44;3.90;;;3.60;;
3297;SDS011;1661;53.572;10.174;2023-07-20T04:37:11;3.47;;;3.20;;
3297;SDS011;1661;53.572;10.174;2023-07-20T04:39:38;3.77;;;3.57;;
3297;SDS011;1661;53.572;10.174;2023-07-20T04:42:06;3.60;;;3.30;;
3297;SDS011;1661;53.572;10.174;2023-07-20T04:44:33;3.90;;;3.70;;
3297;SDS011;1661;53.572;10.174;2023-07-20T04:47:00;3.30;;;3.10;;
3297;SDS011;1661;53.572;10.174;2023-07-20T04:49:27;3.90;;;3.10;;
3297;SDS011;1661;53.572;10.174;2023-07-20T04:51:54;3.40;;;3.20;;
3297;SDS011;1661;53.572;10.174;2023-07-20T04:54:21;5.10;;;4.70;;
3297;SDS011;1661;53.572;10.174;2023-07-20T04:56:47;3.80;;;3.50;;
3297;SDS011;1661;53.572;10.174;2023-07-20T04:59:15;4.53;;;3.80;;
3297;SDS011;1661;53.572;10.174;2023-07-20T05:01:42;4.67;;;4.37;;
3297;SDS011;1661;53.572;10.174;2023-07-20T05:04:09;5.60;;;4.83;;
3297;SDS011;1661;53.572;10.174;2023-07-20T05:06:36;8.63;;;5.87;;
3297;SDS011;1661;53.572;10.174;2023-07-20T05:09:03;10.23;;;4.70;;
3297;SDS011;1661;53.572;10.174;2023-07-20T05:11:32;4.57;;;4.37;;
3297;SDS011;1661;53.572;10.174;2023-07-20T05:13:59;3.77;;;3.40;;
3297;SDS011;1661;53.572;10.174;2023-07-20T05:16:27;5.00;;;4.50;;
3297;SDS011;1661;53.572;10.174;2023-07-20T05:18:54;5.73;;;5.23;;
3297;SDS011;1661;53.572;10.174;2023-07-20T05:21:22;5.10;;;4.70;;
3297;SDS011;1661;53.572;10.174;2023-07-20T05:23:49;3.97;;;3.67;;
3297;SDS011;1661;53.572;10.174;2023-07-20T05:26:16;4.77;;;4.37;;
3297;SDS011;1661;53.572;10.174;2023-07-20T05:28:42;4.50;;;4.20;;
3297;SDS011;1661;53.572;10.174;2023-07-20T05:31:09;3.43;;;3.23;;
3297;SDS011;1661;53.572;10.174;2023-07-20T05:33:37;3.70;;;3.40;;
3297;SDS011;1661;53.572;10.174;2023-07-20T05:36:04;3.97;;;3.60;;
3297;SDS011;1661;53.572;10.174;2023-07-20T05:38:31;5.27;;;3.50;;
3297;SDS011;1661;53.572;10.174;2023-07-20T05:40:59;3.87;;;3.30;;
3297;SDS011;1661;53.572;10.174;2023-07-20T05:43:27;4.07;;;3.43;;
3297;SDS011;1661;53.572;10.174;2023-07-20T05:45:54;4.77;;;2.43;;
3297;SDS011;1661;53.572;10.174;2023-07-20T05:48:21;3.53;;;3.33;;
3297;SDS011;1661;53.572;10.174;2023-07-20T05:50:49;2.77;;;2.57;;
3297;SDS011;1661;53.572;10.174;2023-07-20T05:53:16;3.23;;;2.90;;
3297;SDS011;1661;53.572;10.174;2023-07-20T05:55:42;2.57;;;2.37;;
3297;SDS011;1661;53.572;10.174;2023-07-20T05:58:09;3.57;;;3.27;;
3297;SDS011;1661;53.572;10.174;2023-07-20T06:00:36;4.03;;;3.17;;
3297;SDS011;1661;53.572;10.174;2023-07-20T06:03:03;4.60;;;4.30;;
3297;SDS011;1661;53.572;10.174;2023-07-20T06:05:29;4.87;;;4.47;;
3297;SDS011;1661;53.572;10.174;2023-07-20T06:07:58;6.97;;;5.43;;
3297;SDS011;1661;53.572;10.174;2023-07-20T06:10:25;10.20;;;5.00;;
3297;SDS011;1661;53.572;10.174;2023-07-20T06:12:52;4.27;;;3.80;;
3297;SDS011;1661;53.572;10.174;2023-07-20T06:15:26;3.97;;;3.57;;
3297;SDS011;1661;53.572;10.174;2023-07-20T06:17:54;3.63;;;3.33;;
3297;SDS011;1661;53.572;10.174;2023-07-20T06:20:23;11.50;;;4.10;;
3297;SDS011;1661;53.572;10.174;2023-07-20T06:22:50;5.13;;;3.70;;
3297;SDS011;1661;53.572;10.174;2023-07-20T06:25:18;8.13;;;3.63;;
3297;SDS011;1661;53.572;10.174;2023-07-20T06:27:45;5.70;;;2.90;;
3297;SDS011;1661;53.572;10.174;2023-07-20T06:30:12;2.73;;;2.50;;
3297;SDS011;1661;53.572;10.174;2023-07-20T06:32:39;10.33;;;2.60;;
3297;SDS011;1661;53.572;10.174;2023-07-20T06:35:06;4.00;;;2.83;;
3297;SDS011;1661;53.572;10.174;2023-07-20T06:37:33;2.37;;;2.00;;
3297;SDS011;1661;53.572;10.174;2023-07-20T06:40:01;3.63;;;1.97;;
3297;SDS011;1661;53.572;10.174;2023-07-20T06:42:30;4.60;;;1.53;;
3297;SDS011;1661;53.572;10.174;2023-07-20T06:44:57;1.90;;;1.80;;
3297;SDS011;1661;53.572;10.174;2023-07-20T06:47:24;7.23;;;2.93;;
3297;SDS011;1661;53.572;10.174;2023-07-20T06:49:50;5.90;;;1.90;;
3297;SDS011;1661;53.572;10.174;2023-07-20T06:52:17;2.33;;;2.10;;
3297;SDS011;1661;53.572;10.174;2023-07-20T06:54:44;4.03;;;2.30;;
3297;SDS011;1661;53.572;10.174;2023-07-20T06:57:11;6.50;;;2.17;;
3297;SDS011;1661;53.572;10.174;2023-07-20T06:59:40;3.70;;;1.70;;
3297;SDS011;1661;53.572;10.174;2023-07-20T07:02:06;5.93;;;2.53;;
3297;SDS011;1661;53.572;10.174;2023-07-20T07:04:33;3.60;;;2.07;;
3297;SDS011;1661;53.572;10.174;2023-07-20T07:07:00;4.70;;;2.70;;
3297;SDS011;1661;53.572;10.174;2023-07-20T07:09:28;2.90;;;2.63;;
3297;SDS011;1661;53.572;10.174;2023-07-20T07:11:55;1.87;;;1.53;;
3297;SDS011;1661;53.572;10.174;2023-07-20T07:14:22;2.33;;;1.17;;
3297;SDS011;1661;53.572;10.174;2023-07-20T07:16:50;3.53;;;2.07;;
3297;SDS011;1661;53.572;10.174;2023-07-20T07:19:17;3.50;;;2.27;;
3297;SDS011;1661;53.572;10.174;2023-07-20T07:21:44;4.67;;;1.80;;
3297;SDS011;1661;53.572;10.174;2023-07-20T07:24:11;2.77;;;1.40;;
3297;SDS011;1661;53.572;10.174;2023-07-20T07:26:37;3.77;;;2.17;;
3297;SDS011;1661;53.572;10.174;2023-07-20T07:29:05;2.97;;;1.57;;
3297;SDS011;1661;53.572;10.174;2023-07-20T07:31:33;3.60;;;1.90;;
3297;SDS011;1661;53.572;10.174;2023-07-20T07:34:01;3.60;;;1.60;;
3297;SDS011;1661;53.572;10.174;2023-07-20T07:36:29;1.30;;;1.10;;
3297;SDS011;1661;53.572;10.174;2023-07-20T07:38:56;4.23;;;1.80;;
3297;SDS011;1661;53.572;10.174;2023-07-20T07:41:23;6.17;;;2.03;;
3297;SDS011;1661;53.572;10.174;2023-07-20T07:43:50;5.53;;;1.73;;
3297;SDS011;1661;53.572;10.174;2023-07-20T07:46:17;7.73;;;2.50;;
3297;SDS011;1661;53.572;10.174;2023-07-20T07:48:43;6.17;;;1.53;;
3297;SDS011;1661;53.572;10.174;2023-07-20T07:51:11;8.73;;;1.53;;
3297;SDS011;1661;53.572;10.174;2023-07-20T07:53:39;2.10;;;1.40;;
3297;SDS011;1661;53.572;10.174;2023-07-20T07:56:07;7.83;;;2.10;;
3297;SDS011;1661;53.572;10.174;2023-07-20T07:58:34;4.47;;;1.70;;
3297;SDS011;1661;53.572;10.174;2023-07-20T08:01:01;5.87;;;2.27;;
3297;SDS011;1661;53.572;10.174;2023-07-20T08:03:28;13.60;;;2.83;;
3297;SDS011;1661;53.572;10.174;2023-07-20T08:05:55;9.47;;;2.10;;
3297;SDS011;1661;53.572;10.174;2023-07-20T08:08:23;6.70;;;2.50;;
3297;SDS011;1661;53.572;10.174;2023-07-20T08:10:50;2.33;;;2.00;;
3297;SDS011;1661;53.572;10.174;2023-07-20T08:13:19;3.33;;;2.33;;
3297;SDS011;1661;53.572;10.174;2023-07-20T08:15:50;3.37;;;2.23;;
3297;SDS011;1661;53.572;10.174;2023-07-20T08:18:17;3.00;;;1.87;;
3297;SDS011;1661;53.572;10.174;2023-07-20T08:20:45;3.77;;;3.20;;
3297;SDS011;1661;53.572;10.174;2023-07-20T08:23:12;4.53;;;2.20;;
3297;SDS011;1661;53.572;10.174;2023-07-20T08:25:40;4.17;;;2.33;;
3297;SDS011;1661;53.572;10.174;2023-07-20T08:28:09;8.30;;;3.00;;
3297;SDS011;1661;53.572;10.174;2023-07-20T08:30:40;5.60;;;3.10;;
3297;SDS011;1661;53.572;10.174;2023-07-20T08:33:07;8.23;;;2.60;;
3297;SDS011;1661;53.572;10.174;2023-07-20T08:35:34;5.03;;;2.73;;
3297;SDS011;1661;53.572;10.174;2023-07-20T08:38:01;5.30;;;2.73;;
3297;SDS011;1661;53.572;10.174;2023-07-20T08:40:29;4.50;;;2.70;;
3297;SDS011;1661;53.572;10.174;2023-07-20T08:42:57;10.03;;;3.57;;
3297;SDS011;1661;53.572;10.174;2023-07-20T08:45:25;3.27;;;2.87;;
3297;SDS011;1661;53.572;10.174;2023-07-20T08:47:54;7.30;;;2.60;;
3297;SDS011;1661;53.572;10.174;2023-07-20T08:50:22;6.67;;;3.10;;
3297;SDS011;1661;53.572;10.174;2023-07-20T08:52:50;5.43;;;2.57;;
3297;SDS011;1661;53.572;10.174;2023-07-20T08:55:20;8.53;;;2.50;;
3297;SDS011;1661;53.572;10.174;2023-07-20T08:57:47;8.03;;;2.90;;
3297;SDS011;1661;53.572;10.174;2023-07-20T09:00:17;3.50;;;2.60;;
3297;SDS011;1661;53.572;10.174;2023-07-20T09:02:46;8.20;;;3.50;;
3297;SDS011;1661;53.572;10.174;2023-07-20T09:05:16;4.40;;;3.10;;
3297;SDS011;1661;53.572;10.174;2023-07-20T09:07:43;9.57;;;2.90;;
3297;SDS011;1661;53.572;10.174;2023-07-20T09:10:10;5.80;;;2.83;;
3297;SDS011;1661;53.572;10.174;2023-07-20T09:12:38;3.20;;;2.73;;
3297;SDS011;1661;53.572;10.174;2023-07-20T09:15:06;6.57;;;3.10;;
3297;SDS011;1661;53.572;10.174;2023-07-20T09:17:35;6.80;;;3.03;;
3297;SDS011;1661;53.572;10.174;2023-07-20T09:20:03;9.23;;;2.77;;
3297;SDS011;1661;53.572;10.174;2023-07-20T09:22:33;8.63;;;3.10;;
3297;SDS011;1661;53.572;10.174;2023-07-20T09:25:01;4.63;;;3.30;;
3297;SDS011;1661;53.572;10.174;2023-07-20T09:27:34;10.43;;;3.23;;
3297;SDS011;1661;53.572;10.174;2023-07-20T09:30:02;9.77;;;3.00;;
3297;SDS011;1661;53.572;10.174;2023-07-20T09:32:32;8.23;;;3.17;;
3297;SDS011;1661;53.572;10.174;2023-07-20T09:35:07;7.80;;;3.00;;
3297;SDS011;1661;53.572;10.174;2023-07-20T09:37:39;11.87;;;2.80;;
3297;SDS011;1661;53.572;10.174;2023-07-20T09:40:06;7.20;;;2.37;;
3297;SDS011;1661;53.572;10.174;2023-07-20T09:42:35;4.53;;;2.13;;
3297;SDS011;1661;53.572;10.174;2023-07-20T09:45:03;6.13;;;1.77;;
3297;SDS011;1661;53.572;10.174;2023-07-20T09:47:33;3.90;;;2.10;;
3297;SDS011;1661;53.572;10.174;2023-07-20T09:50:04;3.33;;;1.50;;
3297;SDS011;1661;53.572;10.174;2023-07-20T09:52:35;6.43;;;2.40;;
3297;SDS011;1661;53.572;10.174;2023-07-20T09:55:06;2.27;;;1.53;;
3297;SDS011;1661;53.572;10.174;2023-07-20T09:57:34;3.33;;;1.77;;
3297;SDS011;1661;53.572;10.174;2023-07-20T10:00:02;3.10;;;1.70;;
3297;SDS011;1661;53.572;10.174;2023-07-20T10:02:39;2.33;;;1.70;;
3297;SDS011;1661;53.572;10.174;2023-07-20T10:05:11;2.30;;;1.10;;
3297;SDS011;1661;53.572;10.174;2023-07-20T10:07:44;2.80;;;1.67;;
3297;SDS011;1661;53.572;10.174;2023-07-20T10:10:13;9.53;;;1.77;;
3297;SDS011;1661;53.572;10.174;2023-07-20T10:12:42;5.00;;;1.80;;
3297;SDS011;1661;53.572;10.174;2023-07-20T10:15:11;2.10;;;1.30;;
3297;SDS011;1661;53.572;10.174;2023-07-20T10:17:42;2.73;;;1.70;;
3297;SDS011;1661;53.572;10.174;2023-07-20T10:20:17;3.93;;;1.70;;
3297;SDS011;1661;53.572;10.174;2023-07-20T10:22:47;2.53;;;1.17;;
3297;SDS011;1661;53.572;10.174;2023-07-20T10:25:19;4.00;;;1.47;;
3297;SDS011;1661;53.572;10.174;2023-07-20T10:27:48;5.67;;;1.30;;
3297;SDS011;1661;53.572;10.174;2023-07-20T10:30:15;4.30;;;1.80;;
3297;SDS011;1661;53.572;10.174;2023-07-20T10:32:44;5.40;;;1.93;;
3297;SDS011;1661;53.572;10.174;2023-07-20T10:35:12;4.90;;;1.57;;
3297;SDS011;1661;53.572;10.174;2023-07-20T10:37:47;4.90;;;1.93;;
3297;SDS011;1661;53.572;10.174;2023-07-20T10:43:04;2.37;;;1.80;;
3297;SDS011;1661;53.572;10.174;2023-07-20T10:45:40;2.53;;;1.60;;
3297;SDS011;1661;53.572;10.174;2023-07-20T10:48:14;6.23;;;2.03;;
3297;SDS011;1661;53.572;10.174;2023-07-20T10:50:42;4.13;;;1.53;;
3297;SDS011;1661;53.572;10.174;2023-07-20T10:53:11;2.90;;;1.47;;
3297;SDS011;1661;53.572;10.174;2023-07-20T10:55:39;4.37;;;1.53;;
3297;SDS011;1661;53.572;10.174;2023-07-20T10:58:06;2.40;;;1.30;;
3297;SDS011;1661;53.572;10.174;2023-07-20T11:00:34;3.20;;;1.83;;
3297;SDS011;1661;53.572;10.174;2023-07-20T11:03:02;5.30;;;2.07;;
3297;SDS011;1661;53.572;10.174;2023-07-20T11:05:35;5.73;;;1.80;;
3297;SDS011;1661;53.572;10.174;2023-07-20T11:08:05;5.20;;;1.50;;
3297;SDS011;1661;53.572;10.174;2023-07-20T11:10:36;2.50;;;1.30;;
3297;SDS011;1661;53.572;10.174;2023-07-20T11:15:46;4.33;;;1.33;;
3297;SDS011;1661;53.572;10.174;2023-07-20T11:18:14;4.50;;;1.43;;
3297;SDS011;1661;53.572;10.174;2023-07-20T11:20:41;1.67;;;1.07;;
3297;SDS011;1661;53.572;10.174;2023-07-20T11:23:08;3.53;;;1.13;;
3297;SDS011;1661;53.572;10.174;2023-07-20T11:25:38;13.80;;;2.13;;
3297;SDS011;1661;53.572;10.174;2023-07-20T11:28:08;3.87;;;2.00;;
3297;SDS011;1661;53.572;10.174;2023-07-20T11:30:36;3.70;;;2.20;;
3297;SDS011;1661;53.572;10.174;2023-07-20T11:33:03;4.83;;;1.97;;
3297;SDS011;1661;53.572;10.174;2023-07-20T11:35:30;4.50;;;1.50;;
3297;SDS011;1661;53.572;10.174;2023-07-20T11:38:01;3.83;;;1.50;;
3297;SDS011;1661;53.572;10.174;2023-07-20T11:40:28;2.50;;;1.40;;
3297;SDS011;1661;53.572;10.174;2023-07-20T11:42:56;5.50;;;1.67;;
3297;SDS011;1661;53.572;10.174;2023-07-20T11:45:23;5.77;;;1.70;;
3297;SDS011;1661;53.572;10.174;2023-07-20T11:47:52;3.50;;;1.70;;
3297;SDS011;1661;53.572;10.174;2023-07-20T11:50:19;5.80;;;1.73;;
3297;SDS011;1661;53.572;10.174;2023-07-20T11:52:46;4.40;;;1.40;;
3297;SDS011;1661;53.572;10.174;2023-07-20T11:55:13;1.40;;;0.90;;
3297;SDS011;1661;53.572;10.174;2023-07-20T11:57:40;1.73;;;1.10;;
3297;SDS011;1661;53.572;10.174;2023-07-20T12:00:09;4.60;;;1.03;;
3297;SDS011;1661;53.572;10.174;2023-07-20T12:02:37;3.33;;;1.20;;
3297;SDS011;1661;53.572;10.174;2023-07-20T12:05:05;3.77;;;1.23;;
3297;SDS011;1661;53.572;10.174;2023-07-20T12:07:35;1.70;;;1.10;;
3297;SDS011;1661;53.572;10.174;2023-07-20T12:10:05;1.80;;;0.90;;
3297;SDS011;1661;53.572;10.174;2023-07-20T12:12:33;1.50;;;1.03;;
3297;SDS011;1661;53.572;10.174;2023-07-20T12:17:46;1.97;;;1.10;;
3297;SDS011;1661;53.572;10.174;2023-07-20T12:20:24;6.20;;;1.47;;
3297;SDS011;1661;53.572;10.174;2023-07-20T12:22:52;5.87;;;0.90;;
3297;SDS011;1661;53.572;10.174;2023-07-20T12:25:19;7.10;;;1.17;;
3297;SDS011;1661;53.572;10.174;2023-07-20T12:27:47;5.07;;;1.50;;
3297;SDS011;1661;53.572;10.174;2023-07-20T12:30:14;2.60;;;0.97;;
3297;SDS011;1661;53.572;10.174;2023-07-20T12:32:42;3.40;;;1.20;;
3297;SDS011;1661;53.572;10.174;2023-07-20T12:35:09;5.23;;;1.07;;
3297;SDS011;1661;53.572;10.174;2023-07-20T12:37:36;2.33;;;1.73;;
3297;SDS011;1661;53.572;10.174;2023-07-20T12:40:03;10.57;;;1.53;;
3297;SDS011;1661;53.572;10.174;2023-07-20T12:42:36;7.90;;;1.70;;
3297;SDS011;1661;53.572;10.174;2023-07-20T12:45:04;4.80;;;1.30;;
3297;SDS011;1661;53.572;10.174;2023-07-20T12:47:31;3.23;;;1.67;;
3297;SDS011;1661;53.572;10.174;2023-07-20T12:49:59;1.87;;;1.47;;
3297;SDS011;1661;53.572;10.174;2023-07-20T12:52:26;2.07;;;1.43;;
3297;SDS011;1661;53.572;10.174;2023-07-20T12:54:53;7.53;;;1.80;;
3297;SDS011;1661;53.572;10.174;2023-07-20T12:57:20;4.00;;;1.30;;
3297;SDS011;1661;53.572;10.174;2023-07-20T12:59:47;2.30;;;1.23;;
3297;SDS011;1661;53.572;10.174;2023-07-20T13:02:13;2.60;;;2.00;;
3297;SDS011;1661;53.572;10.174;2023-07-20T13:04:40;6.33;;;1.70;;
3297;SDS011;1661;53.572;10.174;2023-07-20T13:07:09;12.50;;;2.20;;
3297;SDS011;1661;53.572;10.174;2023-07-20T13:09:37;5.10;;;1.70;;
3297;SDS011;1661;53.572;10.174;2023-07-20T13:12:04;8.17;;;1.80;;
3297;SDS011;1661;53.572;10.174;2023-07-20T13:14:31;2.10;;;1.40;;
3297;SDS011;1661;53.572;10.174;2023-07-20T13:16:58;2.30;;;1.50;;
3297;SDS011;1661;53.572;10.174;2023-07-20T13:19:25;7.57;;;1.60;;
3297;SDS011;1661;53.572;10.174;2023-07-20T13:21:52;5.03;;;1.60;;
3297;SDS011;1661;53.572;10.174;2023-07-20T13:24:20;5.10;;;1.53;;
3297;SDS011;1661;53.572;10.174;2023-07-20T13:26:47;2.23;;;1.07;;
3297;SDS011;1661;53.572;10.174;2023-07-20T13:29:13;2.53;;;1.20;;
3297;SDS011;1661;53.572;10.174;2023-07-20T13:31:40;6.53;;;1.73;;
3297;SDS011;1661;53.572;10.174;2023-07-20T13:34:07;4.70;;;1.20;;
3297;SDS011;1661;53.572;10.174;2023-07-20T13:36:34;2.43;;;1.17;;
3297;SDS011;1661;53.572;10.174;2023-07-20T13:39:00;2.93;;;1.23;;
3297;SDS011;1661;53.572;10.174;2023-07-20T13:41:31;6.67;;;2.30;;
3297;SDS011;1661;53.572;10.174;2023-07-20T13:43:58;2.90;;;1.20;;
3297;SDS011;1661;53.572;10.174;2023-07-20T13:46:24;2.33;;;1.10;;
3297;SDS011;1661;53.572;10.174;2023-07-20T13:48:51;2.10;;;1.70;;
3297;SDS011;1661;53.572;10.174;2023-07-20T13:51:18;3.60;;;1.50;;
3297;SDS011;1661;53.572;10.174;2023-07-20T13:53:45;2.73;;;1.20;;
3297;SDS011;1661;53.572;10.174;2023-07-20T13:56:12;2.70;;;1.50;;
3297;SDS011;1661;53.572;10.174;2023-07-20T13:58:40;3.07;;;1.10;;
3297;SDS011;1661;53.572;10.174;2023-07-20T14:01:07;4.23;;;1.43;;
3297;SDS011;1661;53.572;10.174;2023-07-20T14:03:34;4.33;;;1.50;;
3297;SDS011;1661;53.572;10.174;2023-07-20T14:06:01;3.43;;;1.27;;
3297;SDS011;1661;53.572;10.174;2023-07-20T14:08:27;3.10;;;1.20;;
3297;SDS011;1661;53.572;10.174;2023-07-20T14:10:55;1.70;;;1.23;;
3297;SDS011;1661;53.572;10.174;2023-07-20T14:13:22;2.03;;;1.40;;
3297;SDS011;1661;53.572;10.174;2023-07-20T14:15:50;5.57;;;1.50;;
3297;SDS011;1661;53.572;10.174;2023-07-20T14:18:17;1.87;;;0.97;;
3297;SDS011;1661;53.572;10.174;2023-07-20T14:20:43;2.07;;;0.97;;
3297;SDS011;1661;53.572;10.174;2023-07-20T14:23:10;1.20;;;0.90;;
3297;SDS011;1661;53.572;10.174;2023-07-20T14:25:37;2.33;;;1.20;;
3297;SDS011;1661;53.572;10.174;2023-07-20T14:28:05;1.10;;;0.70;;
3297;SDS011;1661;53.572;10.174;2023-07-20T14:30:32;2.87;;;1.07;;
3297;SDS011;1661;53.572;10.174;2023-07-20T14:33:00;2.77;;;1.20;;
3297;SDS011;1661;53.572;10.174;2023-07-20T14:35:27;5.80;;;1.27;;
3297;SDS011;1661;53.572;10.174;2023-07-20T14:37:53;2.60;;;1.13;;
3297;SDS011;1661;53.572;10.174;2023-07-20T14:40:20;5.00;;;1.20;;
3297;SDS011;1661;53.572;10.174;2023-07-20T14:42:47;3.80;;;1.43;;
3297;SDS011;1661;53.572;10.174;2023-07-20T14:45:14;3.20;;;1.10;;
3297;SDS011;1661;53.572;10.174;2023-07-20T14:47:41;2.80;;;1.53;;
3297;SDS011;1661;53.572;10.174;2023-07-20T14:50:09;2.37;;;1.30;;
3297;SDS011;1661;53.572;10.174;2023-07-20T14:52:36;1.87;;;1.10;;
3297;SDS011;1661;53.572;10.174;2023-07-20T14:55:03;7.70;;;1.90;;
3297;SDS011;1661;53.572;10.174;2023-07-20T14:57:31;4.30;;;1.40;;
3297;SDS011;1661;53.572;10.174;2023-07-20T14:59:57;1.60;;;1.47;;
3297;SDS011;1661;53.572;10.174;2023-07-20T15:02:24;2.00;;;1.13;;
3297;SDS011;1661;53.572;10.174;2023-07-20T15:04:52;2.30;;;1.87;;
3297;SDS011;1661;53.572;10.174;2023-07-20T15:07:20;1.57;;;0.90;;
3297;SDS011;1661;53.572;10.174;2023-07-20T15:09:48;4.37;;;1.03;;
3297;SDS011;1661;53.572;10.174;2023-07-20T15:12:14;1.60;;;1.13;;
3297;SDS011;1661;53.572;10.174;2023-07-20T15:14:42;1.70;;;1.40;;